sensor_id;sensor_type;location;lat;lon;timestamp;P1;durP1;ratioP1;P2;durP2;ratioP2
61569;SDS011;47462;59.172;17.196;2024-03-23T00:53:10;17.13;;;2.45;;
61569;SDS011;47462;59.172;17.196;2024-03-23T00:55:36;11.10;;;1.73;;
61569;SDS011;47462;59.172;17.196;2024-03-23T00:58:02;6.30;;;1.70;;
61569;SDS011;47462;59.172;17.196;2024-03-23T01:00:27;9.03;;;1.50;;
61569;SDS011;47462;59.172;17.196;2024-03-23T01:02:52;11.97;;;2.10;;
61569;SDS011;47462;59.172;17.196;2024-03-23T01:05:18;15.10;;;1.97;;
61569;SDS011;47462;59.172;17.196;2024-03-23T01:07:44;21.55;;;3.10;;
61569;SDS011;47462;59.172;17.196;2024-03-23T01:10:09;23.80;;;2.30;;
61569;SDS011;47462;59.172;17.196;2024-03-23T01:12:34;16.05;;;1.83;;
61569;SDS011;47462;59.172;17.196;2024-03-23T01:15:00;12.77;;;2.67;;
61569;SDS011;47462;59.172;17.196;2024-03-23T01:17:25;12.03;;;2.83;;
61569;SDS011;47462;59.172;17.196;2024-03-23T01:19:51;12.57;;;2.33;;
61569;SDS011;47462;59.172;17.196;2024-03-23T01:22:17;14.93;;;1.98;;
61569;SDS011;47462;59.172;17.196;2024-03-23T01:24:43;20.17;;;2.17;;
61569;SDS011;47462;59.172;17.196;2024-03-23T01:27:08;14.02;;;2.47;;
61569;SDS011;47462;59.172;17.196;2024-03-23T01:29:33;16.57;;;2.00;;
61569;SDS011;47462;59.172;17.196;2024-03-23T01:31:59;12.63;;;2.43;;
61569;SDS011;47462;59.172;17.196;2024-03-23T01:34:24;11.73;;;2.80;;
61569;SDS011;47462;59.172;17.196;2024-03-23T01:36:50;14.50;;;2.45;;
61569;SDS011;47462;59.172;17.196;2024-03-23T01:39:16;16.98;;;2.42;;
61569;SDS011;47462;59.172;17.196;2024-03-23T01:41:41;15.88;;;2.65;;
61569;SDS011;47462;59.172;17.196;2024-03-23T01:46:36;10.40;;;1.88;;
61569;SDS011;47462;59.172;17.196;2024-03-23T01:49:02;18.17;;;4.00;;
61569;SDS011;47462;59.172;17.196;2024-03-23T01:51:30;15.75;;;3.33;;
61569;SDS011;47462;59.172;17.196;2024-03-23T01:53:57;13.82;;;2.38;;
61569;SDS011;47462;59.172;17.196;2024-03-23T01:56:29;12.20;;;1.77;;
61569;SDS011;47462;59.172;17.196;2024-03-23T01:58:55;13.30;;;1.92;;
61569;SDS011;47462;59.172;17.196;2024-03-23T02:01:21;14.65;;;1.67;;
61569;SDS011;47462;59.172;17.196;2024-03-23T02:03:46;12.00;;;2.13;;
61569;SDS011;47462;59.172;17.196;2024-03-23T02:06:12;10.23;;;2.03;;
61569;SDS011;47462;59.172;17.196;2024-03-23T02:08:37;13.97;;;2.20;;
61569;SDS011;47462;59.172;17.196;2024-03-23T02:13:29;12.82;;;2.47;;
61569;SDS011;47462;59.172;17.196;2024-03-23T02:15:56;15.55;;;1.83;;
61569;SDS011;47462;59.172;17.196;2024-03-23T02:18:22;18.80;;;2.65;;
61569;SDS011;47462;59.172;17.196;2024-03-23T02:20:47;10.47;;;2.00;;
61569;SDS011;47462;59.172;17.196;2024-03-23T02:23:13;14.37;;;2.73;;
61569;SDS011;47462;59.172;17.196;2024-03-23T02:28:04;17.10;;;2.50;;
61569;SDS011;47462;59.172;17.196;2024-03-23T02:30:32;18.42;;;4.20;;
61569;SDS011;47462;59.172;17.196;2024-03-23T02:32:58;25.60;;;3.72;;
61569;SDS011;47462;59.172;17.196;2024-03-23T02:35:23;15.13;;;2.10;;
61569;SDS011;47462;59.172;17.196;2024-03-23T02:37:49;18.73;;;2.72;;
61569;SDS011;47462;59.172;17.196;2024-03-23T02:40:15;20.10;;;4.00;;
61569;SDS011;47462;59.172;17.196;2024-03-23T02:42:41;20.52;;;2.35;;
61569;SDS011;47462;59.172;17.196;2024-03-23T02:45:06;12.15;;;1.80;;
61569;SDS011;47462;59.172;17.196;2024-03-23T02:47:32;18.25;;;3.67;;
61569;SDS011;47462;59.172;17.196;2024-03-23T02:49:57;15.98;;;2.33;;
61569;SDS011;47462;59.172;17.196;2024-03-23T02:52:23;10.80;;;2.17;;
61569;SDS011;47462;59.172;17.196;2024-03-23T02:54:48;17.90;;;3.10;;
61569;SDS011;47462;59.172;17.196;2024-03-23T02:57:14;13.30;;;2.97;;
61569;SDS011;47462;59.172;17.196;2024-03-23T02:59:39;12.88;;;2.20;;
61569;SDS011;47462;59.172;17.196;2024-03-23T03:02:04;14.53;;;2.60;;
61569;SDS011;47462;59.172;17.196;2024-03-23T03:04:30;21.87;;;2.43;;
61569;SDS011;47462;59.172;17.196;2024-03-23T03:06:56;18.02;;;2.75;;
61569;SDS011;47462;59.172;17.196;2024-03-23T03:09:21;15.53;;;2.77;;
61569;SDS011;47462;59.172;17.196;2024-03-23T03:14:13;18.17;;;3.27;;
61569;SDS011;47462;59.172;17.196;2024-03-23T03:16:38;22.10;;;2.90;;
61569;SDS011;47462;59.172;17.196;2024-03-23T03:19:03;24.90;;;2.70;;
61569;SDS011;47462;59.172;17.196;2024-03-23T03:21:29;19.90;;;2.30;;
61569;SDS011;47462;59.172;17.196;2024-03-23T03:23:54;22.53;;;2.60;;
61569;SDS011;47462;59.172;17.196;2024-03-23T03:26:21;21.25;;;2.75;;
61569;SDS011;47462;59.172;17.196;2024-03-23T03:28:47;16.88;;;2.38;;
61569;SDS011;47462;59.172;17.196;2024-03-23T03:31:17;12.68;;;3.00;;
61569;SDS011;47462;59.172;17.196;2024-03-23T03:33:43;14.95;;;2.45;;
61569;SDS011;47462;59.172;17.196;2024-03-23T03:36:09;18.52;;;2.67;;
61569;SDS011;47462;59.172;17.196;2024-03-23T03:38:35;21.77;;;3.30;;
61569;SDS011;47462;59.172;17.196;2024-03-23T03:41:00;21.30;;;2.83;;
61569;SDS011;47462;59.172;17.196;2024-03-23T03:45:52;28.58;;;2.42;;
61569;SDS011;47462;59.172;17.196;2024-03-23T03:48:19;22.08;;;4.75;;
61569;SDS011;47462;59.172;17.196;2024-03-23T03:50:44;24.00;;;2.83;;
61569;SDS011;47462;59.172;17.196;2024-03-23T03:53:10;17.45;;;2.38;;
61569;SDS011;47462;59.172;17.196;2024-03-23T03:55:36;17.40;;;2.55;;
61569;SDS011;47462;59.172;17.196;2024-03-23T03:58:02;19.20;;;2.83;;
61569;SDS011;47462;59.172;17.196;2024-03-23T04:00:27;23.93;;;2.63;;
61569;SDS011;47462;59.172;17.196;2024-03-23T04:02:52;25.37;;;3.20;;
61569;SDS011;47462;59.172;17.196;2024-03-23T04:05:18;16.77;;;3.13;;
61569;SDS011;47462;59.172;17.196;2024-03-23T04:07:45;19.83;;;3.17;;
61569;SDS011;47462;59.172;17.196;2024-03-23T04:10:10;18.73;;;2.67;;
61569;SDS011;47462;59.172;17.196;2024-03-23T04:12:36;26.67;;;3.67;;
61569;SDS011;47462;59.172;17.196;2024-03-23T04:15:02;18.80;;;2.70;;
61569;SDS011;47462;59.172;17.196;2024-03-23T04:17:30;27.90;;;3.55;;
61569;SDS011;47462;59.172;17.196;2024-03-23T04:20:02;24.05;;;2.97;;
61569;SDS011;47462;59.172;17.196;2024-03-23T04:22:31;15.15;;;3.15;;
61569;SDS011;47462;59.172;17.196;2024-03-23T04:27:22;27.92;;;3.30;;
61569;SDS011;47462;59.172;17.196;2024-03-23T04:29:49;24.52;;;4.35;;
61569;SDS011;47462;59.172;17.196;2024-03-23T04:32:15;23.20;;;2.33;;
61569;SDS011;47462;59.172;17.196;2024-03-23T04:34:42;17.80;;;2.45;;
61569;SDS011;47462;59.172;17.196;2024-03-23T04:37:09;22.75;;;2.97;;
61569;SDS011;47462;59.172;17.196;2024-03-23T04:39:35;18.88;;;2.83;;
61569;SDS011;47462;59.172;17.196;2024-03-23T04:42:02;23.55;;;3.33;;
61569;SDS011;47462;59.172;17.196;2024-03-23T04:44:31;22.63;;;3.75;;
61569;SDS011;47462;59.172;17.196;2024-03-23T04:46:57;17.42;;;2.75;;
61569;SDS011;47462;59.172;17.196;2024-03-23T04:49:22;26.80;;;3.80;;
61569;SDS011;47462;59.172;17.196;2024-03-23T04:51:48;27.65;;;3.80;;
61569;SDS011;47462;59.172;17.196;2024-03-23T04:54:14;21.52;;;2.83;;
61569;SDS011;47462;59.172;17.196;2024-03-23T04:56:40;20.88;;;2.65;;
61569;SDS011;47462;59.172;17.196;2024-03-23T04:59:09;17.73;;;3.03;;
61569;SDS011;47462;59.172;17.196;2024-03-23T05:01:35;21.50;;;2.83;;
61569;SDS011;47462;59.172;17.196;2024-03-23T05:04:04;17.27;;;3.13;;
61569;SDS011;47462;59.172;17.196;2024-03-23T05:06:30;17.70;;;2.72;;
61569;SDS011;47462;59.172;17.196;2024-03-23T05:08:56;21.77;;;4.55;;
61569;SDS011;47462;59.172;17.196;2024-03-23T05:11:22;25.42;;;3.65;;
61569;SDS011;47462;59.172;17.196;2024-03-23T05:13:47;18.38;;;2.28;;
61569;SDS011;47462;59.172;17.196;2024-03-23T05:18:39;24.90;;;3.10;;
61569;SDS011;47462;59.172;17.196;2024-03-23T05:21:05;24.38;;;3.83;;
61569;SDS011;47462;59.172;17.196;2024-03-23T05:23:30;20.42;;;3.53;;
61569;SDS011;47462;59.172;17.196;2024-03-23T05:25:57;16.27;;;2.67;;
61569;SDS011;47462;59.172;17.196;2024-03-23T05:28:23;33.42;;;3.45;;
61569;SDS011;47462;59.172;17.196;2024-03-23T05:30:52;19.73;;;3.17;;
61569;SDS011;47462;59.172;17.196;2024-03-23T05:33:18;17.08;;;2.70;;
61569;SDS011;47462;59.172;17.196;2024-03-23T05:38:10;17.75;;;3.08;;
61569;SDS011;47462;59.172;17.196;2024-03-23T05:40:36;13.50;;;3.42;;
61569;SDS011;47462;59.172;17.196;2024-03-23T05:43:05;21.83;;;3.55;;
61569;SDS011;47462;59.172;17.196;2024-03-23T05:45:32;24.48;;;3.38;;
61569;SDS011;47462;59.172;17.196;2024-03-23T05:47:58;30.52;;;5.22;;
61569;SDS011;47462;59.172;17.196;2024-03-23T05:50:24;27.25;;;5.07;;
61569;SDS011;47462;59.172;17.196;2024-03-23T05:52:50;15.15;;;3.15;;
61569;SDS011;47462;59.172;17.196;2024-03-23T05:55:19;15.45;;;2.88;;
61569;SDS011;47462;59.172;17.196;2024-03-23T05:57:46;21.98;;;3.58;;
61569;SDS011;47462;59.172;17.196;2024-03-23T06:00:12;32.15;;;4.50;;
61569;SDS011;47462;59.172;17.196;2024-03-23T06:02:44;24.27;;;4.25;;
61569;SDS011;47462;59.172;17.196;2024-03-23T06:05:12;32.15;;;9.13;;
61569;SDS011;47462;59.172;17.196;2024-03-23T06:07:38;25.20;;;5.32;;
61569;SDS011;47462;59.172;17.196;2024-03-23T06:10:04;25.30;;;7.30;;
61569;SDS011;47462;59.172;17.196;2024-03-23T06:12:34;29.40;;;7.78;;
61569;SDS011;47462;59.172;17.196;2024-03-23T06:14:59;20.48;;;5.18;;
61569;SDS011;47462;59.172;17.196;2024-03-23T06:17:25;27.33;;;6.53;;
61569;SDS011;47462;59.172;17.196;2024-03-23T06:19:51;24.80;;;6.97;;
61569;SDS011;47462;59.172;17.196;2024-03-23T06:22:16;23.50;;;5.47;;
61569;SDS011;47462;59.172;17.196;2024-03-23T06:24:42;20.23;;;4.00;;
61569;SDS011;47462;59.172;17.196;2024-03-23T06:29:33;27.05;;;4.68;;
61569;SDS011;47462;59.172;17.196;2024-03-23T06:32:00;22.10;;;3.58;;
61569;SDS011;47462;59.172;17.196;2024-03-23T06:34:26;24.27;;;3.50;;
61569;SDS011;47462;59.172;17.196;2024-03-23T06:36:53;19.30;;;2.63;;
61569;SDS011;47462;59.172;17.196;2024-03-23T06:39:18;23.60;;;3.07;;
61569;SDS011;47462;59.172;17.196;2024-03-23T06:41:53;19.88;;;3.15;;
61569;SDS011;47462;59.172;17.196;2024-03-23T06:44:20;24.55;;;4.30;;
61569;SDS011;47462;59.172;17.196;2024-03-23T06:46:46;15.43;;;2.70;;
61569;SDS011;47462;59.172;17.196;2024-03-23T06:49:12;15.52;;;3.13;;
61569;SDS011;47462;59.172;17.196;2024-03-23T06:51:37;21.70;;;4.13;;
61569;SDS011;47462;59.172;17.196;2024-03-23T06:54:06;21.08;;;3.88;;
61569;SDS011;47462;59.172;17.196;2024-03-23T06:56:32;18.42;;;3.42;;
61569;SDS011;47462;59.172;17.196;2024-03-23T06:58:59;23.27;;;4.20;;
61569;SDS011;47462;59.172;17.196;2024-03-23T07:01:24;17.35;;;3.70;;
61569;SDS011;47462;59.172;17.196;2024-03-23T07:03:51;17.15;;;2.65;;
61569;SDS011;47462;59.172;17.196;2024-03-23T07:06:16;20.83;;;3.58;;
61569;SDS011;47462;59.172;17.196;2024-03-23T07:08:42;22.17;;;3.77;;
61569;SDS011;47462;59.172;17.196;2024-03-23T07:11:08;18.88;;;3.13;;
61569;SDS011;47462;59.172;17.196;2024-03-23T07:13:34;17.97;;;2.47;;
61569;SDS011;47462;59.172;17.196;2024-03-23T07:16:00;18.77;;;3.65;;
61569;SDS011;47462;59.172;17.196;2024-03-23T07:18:26;19.45;;;3.70;;
61569;SDS011;47462;59.172;17.196;2024-03-23T07:20:55;22.73;;;3.60;;
61569;SDS011;47462;59.172;17.196;2024-03-23T07:23:22;16.15;;;3.47;;
61569;SDS011;47462;59.172;17.196;2024-03-23T07:26:01;16.25;;;3.80;;
61569;SDS011;47462;59.172;17.196;2024-03-23T07:28:29;25.65;;;3.47;;
61569;SDS011;47462;59.172;17.196;2024-03-23T07:31:04;26.85;;;3.35;;
61569;SDS011;47462;59.172;17.196;2024-03-23T07:33:34;22.45;;;3.08;;
61569;SDS011;47462;59.172;17.196;2024-03-23T07:36:01;23.25;;;3.97;;
61569;SDS011;47462;59.172;17.196;2024-03-23T07:38:28;21.50;;;3.35;;
61569;SDS011;47462;59.172;17.196;2024-03-23T07:41:07;18.02;;;3.45;;
61569;SDS011;47462;59.172;17.196;2024-03-23T07:43:37;21.83;;;3.90;;
61569;SDS011;47462;59.172;17.196;2024-03-23T07:46:04;16.33;;;2.63;;
61569;SDS011;47462;59.172;17.196;2024-03-23T07:48:30;18.98;;;3.13;;
61569;SDS011;47462;59.172;17.196;2024-03-23T07:53:26;25.55;;;4.32;;
61569;SDS011;47462;59.172;17.196;2024-03-23T07:55:57;21.15;;;4.18;;
61569;SDS011;47462;59.172;17.196;2024-03-23T07:58:24;19.30;;;3.08;;
61569;SDS011;47462;59.172;17.196;2024-03-23T08:00:52;19.67;;;3.58;;
61569;SDS011;47462;59.172;17.196;2024-03-23T08:03:20;15.15;;;2.83;;
61569;SDS011;47462;59.172;17.196;2024-03-23T08:05:48;22.38;;;3.53;;
61569;SDS011;47462;59.172;17.196;2024-03-23T08:08:14;19.80;;;2.78;;
61569;SDS011;47462;59.172;17.196;2024-03-23T08:10:49;20.67;;;4.05;;
61569;SDS011;47462;59.172;17.196;2024-03-23T08:13:18;19.73;;;3.25;;
61569;SDS011;47462;59.172;17.196;2024-03-23T08:15:44;24.08;;;4.63;;
61569;SDS011;47462;59.172;17.196;2024-03-23T08:18:16;19.35;;;3.22;;
61569;SDS011;47462;59.172;17.196;2024-03-23T08:20:45;19.17;;;3.67;;
61569;SDS011;47462;59.172;17.196;2024-03-23T08:23:11;19.27;;;4.18;;
61569;SDS011;47462;59.172;17.196;2024-03-23T08:25:37;24.65;;;3.65;;
61569;SDS011;47462;59.172;17.196;2024-03-23T08:28:03;17.52;;;4.80;;
61569;SDS011;47462;59.172;17.196;2024-03-23T08:30:29;16.67;;;3.40;;
61569;SDS011;47462;59.172;17.196;2024-03-23T08:32:57;21.50;;;4.07;;
61569;SDS011;47462;59.172;17.196;2024-03-23T08:35:24;17.73;;;2.75;;
61569;SDS011;47462;59.172;17.196;2024-03-23T08:37:50;16.55;;;3.25;;
61569;SDS011;47462;59.172;17.196;2024-03-23T08:40:17;26.13;;;4.10;;
61569;SDS011;47462;59.172;17.196;2024-03-23T08:42:42;25.70;;;6.88;;
61569;SDS011;47462;59.172;17.196;2024-03-23T08:45:08;16.40;;;2.92;;
61569;SDS011;47462;59.172;17.196;2024-03-23T08:47:34;18.23;;;4.15;;
61569;SDS011;47462;59.172;17.196;2024-03-23T08:50:01;15.63;;;3.72;;
61569;SDS011;47462;59.172;17.196;2024-03-23T08:52:30;23.20;;;3.85;;
61569;SDS011;47462;59.172;17.196;2024-03-23T08:54:56;24.52;;;3.95;;
61569;SDS011;47462;59.172;17.196;2024-03-23T08:57:25;15.90;;;3.25;;
61569;SDS011;47462;59.172;17.196;2024-03-23T08:59:52;18.83;;;3.80;;
61569;SDS011;47462;59.172;17.196;2024-03-23T09:02:17;17.98;;;3.53;;
61569;SDS011;47462;59.172;17.196;2024-03-23T09:04:43;15.07;;;3.20;;
61569;SDS011;47462;59.172;17.196;2024-03-23T09:07:10;16.60;;;3.10;;
61569;SDS011;47462;59.172;17.196;2024-03-23T09:12:03;16.35;;;3.15;;
61569;SDS011;47462;59.172;17.196;2024-03-23T09:14:30;20.50;;;3.30;;
61569;SDS011;47462;59.172;17.196;2024-03-23T09:16:56;16.73;;;3.13;;
61569;SDS011;47462;59.172;17.196;2024-03-23T09:19:22;17.30;;;3.60;;
61569;SDS011;47462;59.172;17.196;2024-03-23T09:21:48;16.52;;;2.95;;
61569;SDS011;47462;59.172;17.196;2024-03-23T09:24:15;19.40;;;3.10;;
61569;SDS011;47462;59.172;17.196;2024-03-23T09:26:40;21.02;;;3.50;;
61569;SDS011;47462;59.172;17.196;2024-03-23T09:29:06;12.02;;;2.88;;
61569;SDS011;47462;59.172;17.196;2024-03-23T09:31:33;13.00;;;3.42;;
61569;SDS011;47462;59.172;17.196;2024-03-23T09:34:00;12.45;;;2.65;;
61569;SDS011;47462;59.172;17.196;2024-03-23T09:36:26;18.05;;;2.33;;
61569;SDS011;47462;59.172;17.196;2024-03-23T09:38:51;14.10;;;2.70;;
61569;SDS011;47462;59.172;17.196;2024-03-23T09:41:17;17.90;;;2.90;;
61569;SDS011;47462;59.172;17.196;2024-03-23T09:43:45;20.48;;;2.90;;
61569;SDS011;47462;59.172;17.196;2024-03-23T09:46:13;18.52;;;3.78;;
61569;SDS011;47462;59.172;17.196;2024-03-23T09:48:40;14.10;;;2.88;;
61569;SDS011;47462;59.172;17.196;2024-03-23T09:51:08;15.90;;;3.53;;
61569;SDS011;47462;59.172;17.196;2024-03-23T09:53:37;16.63;;;3.22;;
61569;SDS011;47462;59.172;17.196;2024-03-23T09:56:04;13.30;;;2.60;;
61569;SDS011;47462;59.172;17.196;2024-03-23T09:58:30;10.30;;;2.63;;
61569;SDS011;47462;59.172;17.196;2024-03-23T10:00:57;12.45;;;2.58;;
61569;SDS011;47462;59.172;17.196;2024-03-23T10:03:23;16.63;;;2.53;;
61569;SDS011;47462;59.172;17.196;2024-03-23T10:06:00;18.05;;;2.63;;
61569;SDS011;47462;59.172;17.196;2024-03-23T10:08:27;13.45;;;2.85;;
61569;SDS011;47462;59.172;17.196;2024-03-23T10:10:54;16.50;;;2.55;;
61569;SDS011;47462;59.172;17.196;2024-03-23T10:13:26;10.18;;;2.08;;
61569;SDS011;47462;59.172;17.196;2024-03-23T10:18:23;16.98;;;2.58;;
61569;SDS011;47462;59.172;17.196;2024-03-23T10:23:30;17.50;;;3.25;;
61569;SDS011;47462;59.172;17.196;2024-03-23T10:26:12;11.60;;;2.15;;
61569;SDS011;47462;59.172;17.196;2024-03-23T10:28:50;13.48;;;3.28;;
61569;SDS011;47462;59.172;17.196;2024-03-23T10:31:17;14.77;;;2.67;;
61569;SDS011;47462;59.172;17.196;2024-03-23T10:33:46;16.65;;;3.10;;
61569;SDS011;47462;59.172;17.196;2024-03-23T10:36:13;9.90;;;2.67;;
61569;SDS011;47462;59.172;17.196;2024-03-23T10:38:42;14.88;;;2.92;;
61569;SDS011;47462;59.172;17.196;2024-03-23T10:41:10;9.38;;;1.80;;
61569;SDS011;47462;59.172;17.196;2024-03-23T10:43:36;12.93;;;2.58;;
61569;SDS011;47462;59.172;17.196;2024-03-23T10:46:03;11.43;;;2.30;;
61569;SDS011;47462;59.172;17.196;2024-03-23T10:48:29;7.53;;;1.55;;
61569;SDS011;47462;59.172;17.196;2024-03-23T10:50:56;13.63;;;2.70;;
61569;SDS011;47462;59.172;17.196;2024-03-23T10:53:25;16.80;;;2.58;;
61569;SDS011;47462;59.172;17.196;2024-03-23T10:55:52;12.15;;;2.75;;
61569;SDS011;47462;59.172;17.196;2024-03-23T10:58:23;9.35;;;2.53;;
61569;SDS011;47462;59.172;17.196;2024-03-23T11:00:53;10.10;;;2.30;;
61569;SDS011;47462;59.172;17.196;2024-03-23T11:06:05;10.88;;;1.80;;
61569;SDS011;47462;59.172;17.196;2024-03-23T11:13:49;13.15;;;2.63;;
61569;SDS011;47462;59.172;17.196;2024-03-23T11:16:17;8.43;;;2.53;;
61569;SDS011;47462;59.172;17.196;2024-03-23T11:22:02;13.18;;;2.10;;
61569;SDS011;47462;59.172;17.196;2024-03-23T11:24:30;17.60;;;2.97;;
61569;SDS011;47462;59.172;17.196;2024-03-23T11:26:59;15.73;;;2.65;;
61569;SDS011;47462;59.172;17.196;2024-03-23T11:29:28;15.27;;;2.38;;
61569;SDS011;47462;59.172;17.196;2024-03-23T11:34:28;17.35;;;3.45;;
61569;SDS011;47462;59.172;17.196;2024-03-23T11:37:03;12.30;;;2.35;;
61569;SDS011;47462;59.172;17.196;2024-03-23T11:39:30;12.32;;;2.22;;
61569;SDS011;47462;59.172;17.196;2024-03-23T11:41:56;17.42;;;3.30;;
61569;SDS011;47462;59.172;17.196;2024-03-23T11:44:23;8.57;;;2.30;;
61569;SDS011;47462;59.172;17.196;2024-03-23T11:46:50;17.60;;;3.22;;
61569;SDS011;47462;59.172;17.196;2024-03-23T11:49:26;12.50;;;2.63;;
61569;SDS011;47462;59.172;17.196;2024-03-23T11:51:53;18.60;;;3.70;;
61569;SDS011;47462;59.172;17.196;2024-03-23T11:54:20;12.43;;;2.60;;
61569;SDS011;47462;59.172;17.196;2024-03-23T11:56:59;12.48;;;3.13;;
61569;SDS011;47462;59.172;17.196;2024-03-23T11:59:31;12.50;;;2.30;;
61569;SDS011;47462;59.172;17.196;2024-03-23T12:02:11;12.20;;;2.78;;
61569;SDS011;47462;59.172;17.196;2024-03-23T12:04:40;13.20;;;2.35;;
61569;SDS011;47462;59.172;17.196;2024-03-23T12:09:39;16.35;;;3.08;;
61569;SDS011;47462;59.172;17.196;2024-03-23T12:12:15;11.63;;;2.28;;
61569;SDS011;47462;59.172;17.196;2024-03-23T12:14:42;11.90;;;2.05;;
61569;SDS011;47462;59.172;17.196;2024-03-23T12:17:26;9.60;;;2.10;;
61569;SDS011;47462;59.172;17.196;2024-03-23T12:19:52;15.00;;;2.50;;
61569;SDS011;47462;59.172;17.196;2024-03-23T12:22:21;10.38;;;2.20;;
61569;SDS011;47462;59.172;17.196;2024-03-23T12:24:48;9.88;;;2.30;;
61569;SDS011;47462;59.172;17.196;2024-03-23T12:27:15;11.40;;;2.80;;
61569;SDS011;47462;59.172;17.196;2024-03-23T12:29:42;7.93;;;2.22;;
61569;SDS011;47462;59.172;17.196;2024-03-23T12:32:12;7.57;;;1.45;;
61569;SDS011;47462;59.172;17.196;2024-03-23T12:34:41;10.80;;;1.92;;
61569;SDS011;47462;59.172;17.196;2024-03-23T12:37:08;14.05;;;1.83;;
61569;SDS011;47462;59.172;17.196;2024-03-23T12:42:01;8.98;;;1.88;;
61569;SDS011;47462;59.172;17.196;2024-03-23T12:44:29;12.73;;;2.58;;
61569;SDS011;47462;59.172;17.196;2024-03-23T12:46:55;6.32;;;1.52;;
61569;SDS011;47462;59.172;17.196;2024-03-23T12:49:20;14.77;;;2.83;;
61569;SDS011;47462;59.172;17.196;2024-03-23T12:51:52;6.20;;;1.70;;
61569;SDS011;47462;59.172;17.196;2024-03-23T12:54:22;11.55;;;1.92;;
61569;SDS011;47462;59.172;17.196;2024-03-23T12:56:49;11.18;;;1.67;;
61569;SDS011;47462;59.172;17.196;2024-03-23T12:59:14;7.68;;;2.08;;
61569;SDS011;47462;59.172;17.196;2024-03-23T13:01:44;11.20;;;1.88;;
61569;SDS011;47462;59.172;17.196;2024-03-23T13:06:35;10.02;;;2.28;;
61569;SDS011;47462;59.172;17.196;2024-03-23T13:09:02;6.95;;;1.73;;
61569;SDS011;47462;59.172;17.196;2024-03-23T13:11:29;8.95;;;1.73;;
61569;SDS011;47462;59.172;17.196;2024-03-23T13:13:56;10.82;;;2.08;;
61569;SDS011;47462;59.172;17.196;2024-03-23T13:16:22;11.02;;;1.77;;
61569;SDS011;47462;59.172;17.196;2024-03-23T13:18:48;9.60;;;2.30;;
61569;SDS011;47462;59.172;17.196;2024-03-23T13:21:14;11.07;;;2.22;;
61569;SDS011;47462;59.172;17.196;2024-03-23T13:23:41;10.07;;;2.70;;
61569;SDS011;47462;59.172;17.196;2024-03-23T13:26:07;13.15;;;2.42;;
61569;SDS011;47462;59.172;17.196;2024-03-23T13:31:03;18.63;;;2.83;;
61569;SDS011;47462;59.172;17.196;2024-03-23T13:33:32;16.02;;;5.50;;
61569;SDS011;47462;59.172;17.196;2024-03-23T13:35:58;11.60;;;2.92;;
61569;SDS011;47462;59.172;17.196;2024-03-23T13:40:52;7.97;;;1.98;;
61569;SDS011;47462;59.172;17.196;2024-03-23T13:43:25;11.05;;;1.98;;
61569;SDS011;47462;59.172;17.196;2024-03-23T13:45:53;7.85;;;1.33;;
61569;SDS011;47462;59.172;17.196;2024-03-23T13:48:26;7.38;;;1.65;;
61569;SDS011;47462;59.172;17.196;2024-03-23T13:51:01;13.23;;;2.47;;
61569;SDS011;47462;59.172;17.196;2024-03-23T13:53:30;12.43;;;2.08;;
61569;SDS011;47462;59.172;17.196;2024-03-23T13:55:59;14.85;;;1.77;;
61569;SDS011;47462;59.172;17.196;2024-03-23T13:58:25;9.85;;;2.08;;
61569;SDS011;47462;59.172;17.196;2024-03-23T14:00:51;9.88;;;1.55;;
61569;SDS011;47462;59.172;17.196;2024-03-23T14:03:17;12.38;;;1.90;;
61569;SDS011;47462;59.172;17.196;2024-03-23T14:05:43;8.77;;;2.78;;
61569;SDS011;47462;59.172;17.196;2024-03-23T14:08:10;8.88;;;2.22;;
61569;SDS011;47462;59.172;17.196;2024-03-23T14:10:42;9.95;;;3.25;;
61569;SDS011;47462;59.172;17.196;2024-03-23T14:13:08;9.80;;;2.15;;
61569;SDS011;47462;59.172;17.196;2024-03-23T14:15:34;19.33;;;7.07;;
61569;SDS011;47462;59.172;17.196;2024-03-23T14:18:03;10.60;;;2.92;;
61569;SDS011;47462;59.172;17.196;2024-03-23T14:20:30;6.72;;;1.52;;
61569;SDS011;47462;59.172;17.196;2024-03-23T14:22:55;7.88;;;1.55;;
61569;SDS011;47462;59.172;17.196;2024-03-23T14:25:21;7.63;;;1.38;;
61569;SDS011;47462;59.172;17.196;2024-03-23T14:27:48;7.20;;;1.20;;
61569;SDS011;47462;59.172;17.196;2024-03-23T14:30:14;12.15;;;2.08;;
61569;SDS011;47462;59.172;17.196;2024-03-23T14:32:40;9.30;;;1.83;;
61569;SDS011;47462;59.172;17.196;2024-03-23T14:35:07;9.98;;;1.73;;
61569;SDS011;47462;59.172;17.196;2024-03-23T14:37:38;13.85;;;2.10;;
61569;SDS011;47462;59.172;17.196;2024-03-23T14:40:05;8.75;;;1.75;;
61569;SDS011;47462;59.172;17.196;2024-03-23T14:42:34;10.25;;;2.00;;
61569;SDS011;47462;59.172;17.196;2024-03-23T14:45:00;12.88;;;2.60;;
61569;SDS011;47462;59.172;17.196;2024-03-23T14:47:26;14.32;;;4.93;;
61569;SDS011;47462;59.172;17.196;2024-03-23T14:49:51;17.75;;;9.20;;
61569;SDS011;47462;59.172;17.196;2024-03-23T14:52:18;10.65;;;2.53;;
61569;SDS011;47462;59.172;17.196;2024-03-23T14:54:45;11.50;;;2.22;;
61569;SDS011;47462;59.172;17.196;2024-03-23T14:57:11;8.88;;;1.55;;
61569;SDS011;47462;59.172;17.196;2024-03-23T14:59:37;5.38;;;1.45;;
61569;SDS011;47462;59.172;17.196;2024-03-23T15:02:08;9.77;;;1.58;;
61569;SDS011;47462;59.172;17.196;2024-03-23T15:04:34;10.75;;;1.75;;
61569;SDS011;47462;59.172;17.196;2024-03-23T15:07:00;9.82;;;2.33;;
61569;SDS011;47462;59.172;17.196;2024-03-23T15:09:26;12.23;;;2.03;;
61569;SDS011;47462;59.172;17.196;2024-03-23T15:11:55;7.35;;;1.63;;
61569;SDS011;47462;59.172;17.196;2024-03-23T15:14:21;9.40;;;1.70;;
61569;SDS011;47462;59.172;17.196;2024-03-23T15:16:49;6.82;;;1.85;;
61569;SDS011;47462;59.172;17.196;2024-03-23T15:19:18;10.05;;;1.88;;
61569;SDS011;47462;59.172;17.196;2024-03-23T15:21:43;8.45;;;1.50;;
61569;SDS011;47462;59.172;17.196;2024-03-23T15:24:13;9.20;;;1.45;;
61569;SDS011;47462;59.172;17.196;2024-03-23T15:26:38;10.50;;;1.87;;
61569;SDS011;47462;59.172;17.196;2024-03-23T15:29:04;7.65;;;1.83;;
61569;SDS011;47462;59.172;17.196;2024-03-23T15:31:37;8.77;;;2.28;;
61569;SDS011;47462;59.172;17.196;2024-03-23T15:34:04;12.98;;;1.85;;
61569;SDS011;47462;59.172;17.196;2024-03-23T15:36:30;9.48;;;1.80;;
61569;SDS011;47462;59.172;17.196;2024-03-23T15:38:56;8.25;;;1.70;;
61569;SDS011;47462;59.172;17.196;2024-03-23T15:41:22;8.05;;;1.50;;
61569;SDS011;47462;59.172;17.196;2024-03-23T15:43:49;6.97;;;1.23;;
61569;SDS011;47462;59.172;17.196;2024-03-23T15:46:17;7.40;;;1.58;;
61569;SDS011;47462;59.172;17.196;2024-03-23T15:48:44;6.78;;;1.42;;
61569;SDS011;47462;59.172;17.196;2024-03-23T15:51:11;7.40;;;1.95;;
61569;SDS011;47462;59.172;17.196;2024-03-23T15:53:37;7.97;;;1.33;;
61569;SDS011;47462;59.172;17.196;2024-03-23T15:56:03;10.07;;;1.45;;
61569;SDS011;47462;59.172;17.196;2024-03-23T15:58:30;9.32;;;1.95;;
61569;SDS011;47462;59.172;17.196;2024-03-23T16:01:01;11.75;;;1.80;;
61569;SDS011;47462;59.172;17.196;2024-03-23T16:03:30;7.30;;;1.48;;
61569;SDS011;47462;59.172;17.196;2024-03-23T16:06:00;7.65;;;1.63;;
61569;SDS011;47462;59.172;17.196;2024-03-23T16:08:27;7.63;;;1.45;;
61569;SDS011;47462;59.172;17.196;2024-03-23T16:10:54;6.95;;;1.40;;
61569;SDS011;47462;59.172;17.196;2024-03-23T16:13:22;9.52;;;2.45;;